Time;durP1;ratioP1;P1;durP2;ratioP2;P2;SDS_P1;SDS_P2;PMS_P1;PMS_P2;Temp;Humidity;BMP_temperature;BMP_pressure;BME280_temperature;BME280_humidity;BME280_pressure;Samples;Min_cycle;Max_cycle;Signal;HPM_P1;HPM_P2
2022/09/21 00:01:17;;;;;;;17.25;4.88;;;;;;;9.80;100.00;102448.00;5086438;28;20032;-66
2022/09/21 00:03:43;;;;;;;16.75;5.18;;;;;;;9.66;100.00;102452.81;5083223;28;20032;-65
2022/09/21 00:06:10;;;;;;;16.42;4.78;;;;;;;9.63;100.00;102446.53;5086351;28;20067;-66
2022/09/21 00:08:36;;;;;;;18.38;5.40;;;;;;;9.50;100.00;102447.84;5083432;28;20371;-66
2022/09/21 00:11:03;;;;;;;17.45;5.10;;;;;;;9.37;100.00;102441.25;5085040;28;20103;-66
2022/09/21 00:13:32;;;;;;;17.85;5.53;;;;;;;9.24;100.00;102450.47;5084521;28;20032;-65
2022/09/21 00:15:58;;;;;;;16.55;5.30;;;;;;;9.17;100.00;102454.63;5084379;28;20024;-66
2022/09/21 00:18:24;;;;;;;17.50;5.43;;;;;;;9.16;100.00;102450.22;5083651;28;20089;-66
2022/09/21 00:20:51;;;;;;;16.52;5.00;;;;;;;9.17;100.00;102457.25;5083491;28;20028;-66
2022/09/21 00:23:17;;;;;;;15.65;4.78;;;;;;;9.05;100.00;102457.72;5086275;28;20374;-65
2022/09/21 00:25:42;;;;;;;16.50;4.97;;;;;;;9.04;100.00;102453.31;5082755;28;20024;-66
2022/09/21 00:28:08;;;;;;;16.00;4.80;;;;;;;9.03;100.00;102459.41;5086191;28;20090;-66
2022/09/21 00:30:33;;;;;;;16.63;5.15;;;;;;;9.01;100.00;102454.91;5083519;28;20383;-66
2022/09/21 00:32:59;;;;;;;17.75;5.20;;;;;;;8.92;100.00;102457.22;5084272;28;20047;-65
2022/09/21 00:35:24;;;;;;;18.55;5.40;;;;;;;8.89;100.00;102460.66;5044476;28;1176404;-67
2022/09/21 00:37:50;;;;;;;17.08;5.18;;;;;;;8.97;100.00;102458.28;5084005;28;20039;-66
2022/09/21 00:40:16;;;;;;;19.58;6.45;;;;;;;9.07;100.00;102455.13;5087502;28;20370;-66
2022/09/21 00:42:41;;;;;;;19.38;6.13;;;;;;;9.06;100.00;102458.63;5083925;28;20099;-65
2022/09/21 00:45:19;;;;;;;19.70;5.57;;;;;;;9.06;100.00;102451.63;5085964;28;20455;-66
2022/09/21 00:47:49;;;;;;;16.88;5.30;;;;;;;8.99;100.00;102462.78;5083377;28;20032;-66
2022/09/21 00:50:18;;;;;;;20.63;5.60;;;;;;;8.95;100.00;102460.88;5083583;28;20050;-66
2022/09/21 00:52:50;;;;;;;18.20;5.60;;;;;;;9.01;100.00;102460.19;5083355;28;20031;-65
2022/09/21 00:55:28;;;;;;;21.00;6.00;;;;;;;9.02;100.00;102462.00;5083562;28;20412;-65
2022/09/21 00:57:59;;;;;;;18.08;5.32;;;;;;;9.04;100.00;102458.59;5084144;28;20025;-65
2022/09/21 01:00:24;;;;;;;19.30;5.45;;;;;;;9.04;100.00;102461.22;5085647;28;20103;-66
2022/09/21 01:02:50;;;;;;;18.00;5.38;;;;;;;9.10;100.00;102459.63;5083717;28;20107;-65
2022/09/21 01:05:16;;;;;;;17.58;5.40;;;;;;;9.12;100.00;102452.69;5086575;28;20429;-66
2022/09/21 01:07:47;;;;;;;18.50;5.70;;;;;;;9.14;100.00;102456.28;5083510;28;20059;-66
2022/09/21 01:10:16;;;;;;;19.77;5.90;;;;;;;9.14;100.00;102456.28;5083122;28;20016;-66
2022/09/21 01:13:00;;;;;;;19.42;5.32;;;;;;;9.05;100.00;102463.00;5083013;28;20028;-66
2022/09/21 01:15:34;;;;;;;17.33;5.57;;;;;;;9.03;100.00;102466.44;5084057;28;20429;-66
2022/09/21 01:18:31;;;;;;;17.00;5.65;;;;;;;9.01;100.00;102461.13;5084208;28;20559;-65
2022/09/21 01:21:05;;;;;;;19.17;5.30;;;;;;;8.99;100.00;102462.78;5084198;28;20113;-66
2022/09/21 01:23:37;;;;;;;18.27;5.70;;;;;;;9.02;100.00;102457.63;5084260;28;20419;-66
2022/09/21 01:26:23;;;;;;;18.77;5.57;;;;;;;9.03;100.00;102464.69;5085212;28;20074;-66
2022/09/21 01:29:04;;;;;;;19.77;5.75;;;;;;;9.02;100.00;102457.63;5083468;28;20379;-66
2022/09/21 01:31:44;;;;;;;18.02;5.72;;;;;;;9.09;100.00;102461.38;5084661;28;20039;-66
2022/09/21 01:34:17;;;;;;;19.13;5.90;;;;;;;9.12;100.00;102460.59;5085816;28;20123;-67
2022/09/21 01:36:46;;;;;;;20.58;5.75;;;;;;;9.11;100.00;102461.44;5082638;28;20041;-67
2022/09/21 01:39:15;;;;;;;18.63;5.35;;;;;;;9.05;100.00;102464.75;5085214;28;20386;-63
2022/09/21 01:41:44;;;;;;;18.45;5.63;;;;;;;9.10;100.00;102459.63;5085893;28;20020;-62
2022/09/21 01:44:16;;;;;;;19.48;5.63;;;;;;;9.11;100.00;102459.69;5082909;28;20032;-62
2022/09/21 01:46:44;;;;;;;17.65;5.32;;;;;;;9.08;100.00;102452.56;5086378;28;20025;-64
2022/09/21 01:49:38;;;;;;;19.40;5.55;;;;;;;9.11;100.00;102458.81;5085397;28;20024;-64
2022/09/21 01:52:20;;;;;;;17.83;5.50;;;;;;;9.06;100.00;102445.44;5082450;28;20047;-62
2022/09/21 01:54:51;;;;;;;17.35;5.38;;;;;;;8.92;100.00;102459.88;5082379;28;20371;-66
2022/09/21 01:57:53;;;;;;;20.55;5.80;;;;;;;8.80;100.00;102455.03;5084692;28;20375;-65
2022/09/21 02:00:19;;;;;;;20.37;5.90;;;;;;;8.72;100.00;102455.66;5082485;28;20394;-65
2022/09/21 02:03:07;;;;;;;18.92;5.80;;;;;;;8.67;100.00;102457.22;5085679;28;20020;-65
2022/09/21 02:05:33;;;;;;;17.42;5.60;;;;;;;8.66;100.00;102457.16;5084092;28;20032;-63
2022/09/21 02:07:59;;;;;;;18.95;6.13;;;;;;;8.63;100.00;102454.41;5083984;28;20027;-65
2022/09/21 02:10:34;;;;;;;18.42;5.93;;;;;;;8.63;100.00;102454.41;5082805;28;20106;-62
2022/09/21 02:13:05;;;;;;;19.40;6.13;;;;;;;8.61;100.00;102453.47;5083706;28;20028;-65
2022/09/21 02:15:48;;;;;;;19.25;6.05;;;;;;;8.59;100.00;102460.38;5083813;28;20078;-63
2022/09/21 02:18:39;;;;;;;17.50;5.85;;;;;;;8.59;100.00;102455.13;5081749;28;20024;-62
2022/09/21 02:21:11;;;;;;;21.42;6.13;;;;;;;8.54;100.00;102454.94;5018036;28;20053;-65
2022/09/21 02:23:48;;;;;;;18.13;5.95;;;;;;;8.41;100.00;102453.53;5020553;28;20114;-65
2022/09/21 02:26:24;;;;;;;19.10;5.88;;;;;;;8.29;100.00;102456.59;5023002;28;20033;-63
2022/09/21 02:28:53;;;;;;;18.63;6.40;;;;;;;8.15;100.00;102447.25;5020010;28;20038;-63
2022/09/21 02:31:33;;;;;;;18.92;6.25;;;;;;;8.08;100.00;102458.38;5022597;28;20472;-63
2022/09/21 02:34:17;;;;;;;17.75;5.78;;;;;;;7.99;100.00;102457.19;5020751;28;20429;-63
2022/09/21 02:36:47;;;;;;;20.15;6.22;;;;;;;7.99;100.00;102453.63;5023355;28;20527;-63
2022/09/21 02:39:34;;;;;;;18.52;5.88;;;;;;;7.92;100.00;102455.13;5022914;28;20499;-66
2022/09/21 02:42:14;;;;;;;18.55;5.80;;;;;;;7.93;100.00;102454.28;5022847;28;20611;-62
2022/09/21 02:44:53;;;;;;;19.00;6.05;;;;;;;7.85;100.00;102453.09;5019665;28;20376;-65
2022/09/21 02:47:21;;;;;;;19.02;6.10;;;;;;;7.85;100.00;102453.09;5022592;28;20431;-63
2022/09/21 02:49:53;;;;;;;19.77;5.95;;;;;;;7.84;100.00;102452.16;5019171;28;20480;-63
2022/09/21 02:52:20;;;;;;;18.95;5.78;;;;;;;7.79;100.00;102450.16;5022597;28;20448;-63
2022/09/21 02:54:50;;;;;;;17.67;6.00;;;;;;;7.78;100.00;102446.66;5022582;28;20026;-62
2022/09/21 02:57:18;;;;;;;18.13;5.78;;;;;;;7.76;100.00;102444.78;5026471;28;20034;-65
2022/09/21 02:59:43;;;;;;;18.38;6.00;;;;;;;7.76;100.00;102450.06;5081258;28;20028;-64
2022/09/21 03:02:11;;;;;;;17.80;5.90;;;;;;;7.75;100.00;102449.16;5084041;28;20035;-62
2022/09/21 03:04:38;;;;;;;17.63;5.88;;;;;;;7.70;100.00;102458.59;5081812;28;20062;-63
2022/09/21 03:07:04;;;;;;;19.38;6.07;;;;;;;7.59;100.00;102449.38;5083415;28;20020;-65
2022/09/21 03:09:29;;;;;;;20.13;6.50;;;;;;;7.54;100.00;102453.53;5082662;28;20035;-65
2022/09/21 03:11:54;;;;;;;18.33;6.22;;;;;;;7.45;100.00;102449.66;5082086;28;20032;-65
2022/09/21 03:14:20;;;;;;;18.52;5.63;;;;;;;7.44;100.00;102452.22;5084026;28;20047;-63
2022/09/21 03:16:45;;;;;;;20.85;6.45;;;;;;;7.47;100.00;102449.72;5081049;28;20054;-63
2022/09/21 03:19:11;;;;;;;21.30;6.45;;;;;;;7.41;100.00;102455.66;5083949;28;20355;-64
2022/09/21 03:21:37;;;;;;;18.02;5.93;;;;;;;7.39;100.00;102452.03;5082043;28;20373;-65
2022/09/21 03:24:02;;;;;;;18.05;6.20;;;;;;;7.27;100.00;102455.03;5083063;28;20024;-64
2022/09/21 03:26:28;;;;;;;19.05;6.20;;;;;;;7.25;100.00;102459.34;5082987;28;20035;-62
2022/09/21 03:28:53;;;;;;;18.00;6.10;;;;;;;7.22;100.00;102459.19;5081572;28;20024;-65
2022/09/21 03:31:19;;;;;;;19.48;5.93;;;;;;;7.17;100.00;102462.47;5084202;28;20032;-64
2022/09/21 03:33:45;;;;;;;17.50;6.20;;;;;;;7.15;100.00;102465.03;5080716;28;20123;-63
2022/09/21 03:36:10;;;;;;;19.33;6.22;;;;;;;7.13;100.00;102461.41;5083978;28;20024;-67
2022/09/21 03:38:36;;;;;;;18.38;5.93;;;;;;;7.09;100.00;102462.09;5081895;28;20089;-66
2022/09/21 03:41:02;;;;;;;18.98;6.15;;;;;;;7.11;100.00;102466.63;5082471;28;20421;-67
2022/09/21 03:43:27;;;;;;;18.33;6.00;;;;;;;7.09;100.00;102472.63;5083185;28;20067;-67
2022/09/21 03:45:53;;;;;;;20.38;6.00;;;;;;;7.07;100.00;102469.03;5081565;28;20038;-66
2022/09/21 03:48:18;;;;;;;17.23;5.82;;;;;;;7.01;100.00;102469.66;5084094;28;20506;-67
2022/09/21 03:50:43;;;;;;;19.08;6.07;;;;;;;6.94;100.00;102473.72;5080830;28;20029;-66
2022/09/21 03:53:10;;;;;;;18.70;5.95;;;;;;;6.95;100.00;102477.28;5083603;28;20032;-66
2022/09/21 03:55:35;;;;;;;17.50;5.60;;;;;;;6.97;100.00;102475.59;5081443;28;20356;-66
2022/09/21 03:58:01;;;;;;;19.13;6.00;;;;;;;6.91;100.00;102470.97;5082274;28;20066;-66
2022/09/21 04:00:27;;;;;;;16.98;5.50;;;;;;;6.88;100.00;102478.72;5072564;28;20047;-66
2022/09/21 04:02:53;;;;;;;18.00;5.90;;;;;;;6.92;100.00;102475.41;5081318;28;20020;-63
2022/09/21 04:05:18;;;;;;;19.63;6.30;;;;;;;6.93;100.00;102473.66;5084333;28;20043;-65
2022/09/21 04:07:47;;;;;;;17.00;5.65;;;;;;;6.91;100.00;102473.59;5080407;28;20031;-66
2022/09/21 04:10:16;;;;;;;20.17;6.03;;;;;;;6.91;100.00;102475.34;5083587;28;20466;-65
2022/09/21 04:12:43;;;;;;;17.60;5.80;;;;;;;6.97;100.00;102476.53;5080982;28;20021;-66
2022/09/21 04:15:13;;;;;;;18.13;5.97;;;;;;;6.95;100.00;102475.53;5083271;28;20661;-66
2022/09/21 04:17:39;;;;;;;18.02;6.00;;;;;;;6.97;100.00;102476.53;5079391;28;20502;-66
2022/09/21 04:20:06;;;;;;;19.98;6.10;;;;;;;6.96;100.00;102477.34;5082988;28;20059;-65
2022/09/21 04:22:31;;;;;;;20.42;6.30;;;;;;;6.97;100.00;102471.28;5084575;28;20031;-66
2022/09/21 04:24:57;;;;;;;18.15;5.78;;;;;;;6.86;100.00;102480.41;5084946;28;20020;-65
2022/09/21 04:27:22;;;;;;;18.05;5.75;;;;;;;6.86;100.00;102475.13;5086852;28;20434;-62
2022/09/21 04:29:48;;;;;;;19.55;6.00;;;;;;;6.85;100.00;102473.31;5083921;28;20101;-65
2022/09/21 04:32:13;;;;;;;18.05;5.85;;;;;;;6.87;100.00;102478.66;5083708;28;20021;-65
2022/09/21 04:34:38;;;;;;;23.55;6.28;;;;;;;6.85;100.00;102478.59;5086637;28;20055;-65
2022/09/21 04:37:10;;;;;;;18.92;6.22;;;;;;;6.87;100.00;102482.16;5084932;28;20115;-65
2022/09/21 04:39:36;;;;;;;18.63;5.70;;;;;;;6.82;100.00;102477.56;5085878;28;20094;-65
2022/09/21 04:42:01;;;;;;;19.20;6.15;;;;;;;6.85;100.00;102483.84;5085373;28;20040;-65
2022/09/21 04:44:28;;;;;;;19.83;6.15;;;;;;;6.83;100.00;102480.25;5084864;28;20032;-64
2022/09/21 04:46:53;;;;;;;18.15;6.00;;;;;;;6.77;100.00;102482.59;5086249;28;20484;-62
2022/09/21 04:49:18;;;;;;;17.58;6.07;;;;;;;6.78;100.00;102487.03;5083598;28;20123;-65
2022/09/21 04:51:43;;;;;;;19.05;5.97;;;;;;;6.71;100.00;102487.56;5083379;28;20103;-65
2022/09/21 04:54:09;;;;;;;19.20;6.38;;;;;;;6.73;100.00;102491.19;5086597;28;20028;-63
2022/09/21 04:56:35;;;;;;;18.60;6.20;;;;;;;6.72;100.00;102486.75;5084926;28;20095;-63
2022/09/21 04:59:00;;;;;;;19.45;6.20;;;;;;;6.69;100.00;102497.13;5084907;28;20463;-64
2022/09/21 05:01:26;;;;;;;19.42;6.30;;;;;;;6.63;100.00;102488.09;5086266;28;20078;-63
2022/09/21 05:03:51;;;;;;;18.15;5.95;;;;;;;6.58;100.00;102489.63;5083626;28;20054;-64
2022/09/21 05:06:16;;;;;;;19.15;6.05;;;;;;;6.59;100.00;102494.03;5086532;28;20020;-63
2022/09/21 05:11:26;;;;;;;19.73;6.10;;;;;;;6.56;100.00;102495.63;5084523;28;20032;-64
2022/09/21 05:13:51;;;;;;;21.52;6.53;;;;;;;6.51;100.00;102492.81;5086086;28;20021;-63
2022/09/21 05:16:18;;;;;;;21.73;6.10;;;;;;;6.49;100.00;102498.81;5083380;28;20066;-62
2022/09/21 05:18:44;;;;;;;18.75;6.25;;;;;;;6.42;100.00;102494.97;5086310;28;20028;-63
2022/09/21 05:21:13;;;;;;;18.75;5.97;;;;;;;6.44;100.00;102501.22;5083349;28;20075;-63
2022/09/21 05:23:39;;;;;;;20.00;6.40;;;;;;;6.44;100.00;102499.47;5085633;28;20078;-62
2022/09/21 05:26:05;;;;;;;18.88;6.60;;;;;;;6.44;100.00;102499.47;5082336;28;20028;-63
2022/09/21 05:28:31;;;;;;;20.40;6.85;;;;;;;6.46;100.00;102499.56;5084512;28;20023;-62
2022/09/21 05:31:17;;;;;;;19.92;6.50;;;;;;;6.50;100.00;102504.13;5085086;28;20060;-61
2022/09/21 05:34:02;;;;;;;20.35;6.45;;;;;;;6.48;100.00;102504.88;5042021;28;20053;-63
2022/09/21 05:36:41;;;;;;;18.75;6.15;;;;;;;6.43;100.00;102505.53;5043634;28;20389;-63
2022/09/21 05:39:06;;;;;;;18.17;6.20;;;;;;;6.40;100.00;102500.16;5041602;28;20037;-62
2022/09/21 05:41:32;;;;;;;20.88;6.68;;;;;;;6.41;100.00;102515.09;5031118;28;20483;-62
2022/09/21 05:43:58;;;;;;;21.08;6.70;;;;;;;6.41;100.00;102516.84;5030026;28;20037;-62
2022/09/21 05:46:40;;;;;;;20.05;6.50;;;;;;;6.44;100.00;102519.59;5030307;28;20083;-62
2022/09/21 05:49:47;;;;;;;21.00;6.50;;;;;;;6.51;100.00;102521.69;5036233;28;20033;-63
2022/09/21 05:52:24;;;;;;;20.05;6.53;;;;;;;6.56;100.00;102521.91;5008291;28;20340;-62
2022/09/21 05:55:15;;;;;;;19.67;6.60;;;;;;;6.62;100.00;102520.47;5006075;28;20034;-64
2022/09/21 05:58:03;;;;;;;18.75;6.65;;;;;;;6.65;100.00;102521.44;5007083;28;20077;-64
2022/09/21 06:00:41;;;;;;;21.58;7.13;;;;;;;6.68;100.00;102525.09;4951597;29;20511;-63
2022/09/21 06:03:31;;;;;;;19.70;6.57;;;;;;;6.70;100.00;102535.69;4951553;29;20463;-62
2022/09/21 06:05:57;;;;;;;19.15;6.95;;;;;;;6.72;100.00;102529.69;4951129;29;20062;-63
2022/09/21 06:08:23;;;;;;;19.30;7.45;;;;;;;6.74;100.00;102532.38;4951549;29;20035;-63
2022/09/21 06:10:49;;;;;;;19.30;7.60;;;;;;;6.70;100.00;102526.09;4969675;28;20043;-62
2022/09/21 06:13:14;;;;;;;19.17;7.22;;;;;;;6.71;100.00;102537.50;4989831;28;20034;-63
2022/09/21 06:15:41;;;;;;;21.35;7.15;;;;;;;6.75;100.00;102528.94;4989981;28;20042;-63
2022/09/21 06:18:07;;;;;;;19.88;7.10;;;;;;;6.74;100.00;102538.56;4989212;28;20390;-62
2022/09/21 06:20:32;;;;;;;19.73;7.65;;;;;;;6.80;100.00;102538.84;4989746;28;20540;-63
2022/09/21 06:23:06;;;;;;;19.10;7.55;;;;;;;6.82;100.00;102540.66;4990133;28;20130;-64
2022/09/21 06:25:31;;;;;;;22.88;10.07;;;;;;;6.91;100.00;102541.06;4989486;28;20042;-62
2022/09/21 06:28:09;;;;;;;22.50;9.15;;;;;;;6.94;100.00;102541.22;4994148;28;20033;-63
2022/09/21 06:30:35;;;;;;;22.88;9.32;;;;;;;7.00;100.00;102540.59;5043644;28;20043;-63
2022/09/21 06:33:02;;;;;;;22.42;9.98;;;;;;;7.10;100.00;102537.56;5044074;28;20130;-63
2022/09/21 06:35:28;;;;;;;21.15;10.20;;;;;;;7.18;100.00;102551.03;5043714;28;20541;-62
2022/09/21 06:37:58;;;;;;;21.50;9.30;;;;;;;7.13;100.00;102542.94;5070439;28;20441;-63
2022/09/21 06:40:24;;;;;;;22.58;9.60;;;;;;;7.15;100.00;102541.31;5088162;28;20028;-63
2022/09/21 06:42:54;;;;;;;21.77;9.82;;;;;;;7.17;100.00;102541.38;5083530;28;20081;-63
2022/09/21 06:45:20;;;;;;;22.85;10.50;;;;;;;7.27;100.00;102541.84;5082653;28;20077;-62
2022/09/21 06:47:47;;;;;;;22.02;10.20;;;;;;;7.31;100.00;102548.13;5087227;28;20374;-63
2022/09/21 06:50:12;;;;;;;22.45;10.95;;;;;;;7.43;100.00;102543.44;5083737;28;20116;-62
2022/09/21 06:52:39;;;;;;;23.55;12.27;;;;;;;7.54;100.00;102540.38;5088528;28;20441;-63
2022/09/21 06:55:05;;;;;;;25.38;14.27;;;;;;;7.62;100.00;102544.25;5086086;28;20410;-64
2022/09/21 06:57:30;;;;;;;25.67;15.82;;;;;;;7.71;100.00;102543.75;5087161;28;20067;-62
2022/09/21 06:59:56;;;;;;;27.10;15.75;;;;;;;7.80;100.00;102542.38;5083342;28;20115;-63
2022/09/21 07:02:21;;;;;;;25.63;15.57;;;;;;;7.91;100.00;102542.84;5084883;28;20085;-64
2022/09/21 07:04:46;;;;;;;27.13;16.05;;;;;;;7.99;100.00;102541.47;5085490;28;20060;-62
2022/09/21 07:07:12;;;;;;;27.00;17.25;;;;;;;8.13;100.00;102546.41;5089032;28;20035;-64
2022/09/21 07:09:37;;;;;;;27.27;17.30;;;;;;;8.28;100.00;102544.38;5081344;28;20378;-66
2022/09/21 07:12:03;;;;;;;26.38;17.90;;;;;;;8.40;100.00;102543.97;5086222;28;20486;-63
2022/09/21 07:14:28;;;;;;;28.58;18.38;;;;;;;8.50;100.00;102546.19;5084495;28;20034;-63
2022/09/21 07:16:54;;;;;;;28.27;17.45;;;;;;;8.63;100.00;102551.94;5081587;28;20033;-67
2022/09/21 07:19:19;;;;;;;26.63;16.40;;;;;;;8.73;100.00;102552.34;5083148;28;20032;-66
2022/09/21 07:21:44;;;;;;;27.27;16.77;;;;;;;8.85;100.00;102551.03;5084019;28;20060;-67
2022/09/21 07:24:10;;;;;;;27.25;16.25;;;;;;;8.92;100.00;102546.91;5081353;28;20025;-67
2022/09/21 07:26:36;;;;;;;29.35;15.40;;;;;;;9.00;100.00;102549.00;5085465;28;20459;-68
2022/09/21 07:29:01;;;;;;;26.67;15.25;;;;;;;9.10;100.00;102544.97;5084414;28;20016;-66
2022/09/21 07:31:26;;;;;;;27.27;14.98;;;;;;;9.20;100.00;102548.84;5082731;28;20173;-67
2022/09/21 07:33:57;;;;;;;27.13;14.48;;;;;;;9.25;100.00;102550.81;5082210;28;20047;-66
2022/09/21 07:36:22;;;;;;;26.33;14.98;;;;;;;9.34;100.00;102538.81;5085411;28;20463;-67
2022/09/21 07:38:47;;;;;;;25.42;14.07;;;;;;;9.43;100.00;102539.13;5086534;28;20035;-66
2022/09/21 07:41:14;;;;;;;25.35;13.60;;;;;;;9.57;100.00;102539.63;5082267;28;20474;-68
2022/09/21 07:43:39;;;;;;;24.10;13.40;;;;;;;9.63;100.00;102542.47;5083996;28;20047;-66
2022/09/21 07:46:13;;;;;;;24.33;12.85;;;;;;;9.70;100.00;102539.22;5083672;28;20024;-66
2022/09/21 07:48:39;;;;;;;23.17;11.90;;;;;;;9.84;100.00;102538.78;5084864;28;20028;-65
2022/09/21 07:51:10;;;;;;;24.77;11.20;;;;;;;9.92;100.00;102534.66;5087349;28;20478;-66
2022/09/21 07:53:37;;;;;;;22.58;11.48;;;;;;;9.89;100.00;102542.50;5085218;28;20039;-66
2022/09/21 07:56:05;;;;;;;23.60;10.93;;;;;;;9.90;100.00;102533.69;5087072;28;20023;-66
2022/09/21 08:01:15;;;;;;;21.88;10.05;;;;;;;10.05;100.00;102539.50;5085933;28;20046;-65
2022/09/21 08:03:40;;;;;;;21.35;9.23;;;;;;;10.17;100.00;102535.50;5088753;28;20020;-65
2022/09/21 08:06:06;;;;;;;22.80;9.38;;;;;;;10.26;100.00;102535.78;5086237;28;20028;-65
2022/09/21 08:08:31;;;;;;;20.77;7.35;;;;;;;10.34;100.00;102528.13;5088269;28;20032;-66
2022/09/21 08:11:05;;;;;;;22.15;7.78;;;;;;;10.45;100.00;102534.66;5088240;28;20371;-66
2022/09/21 08:13:30;;;;;;;19.33;6.75;;;;;;;10.54;100.00;102531.41;5084457;28;20482;-66
2022/09/21 08:16:00;;;;;;;19.70;6.80;;;;;;;10.70;100.00;102528.38;5086363;28;20031;-66
2022/09/21 08:18:26;;;;;;;19.15;5.78;;;;;;;10.84;100.00;102531.44;5085225;28;20032;-66
2022/09/21 08:20:56;;;;;;;19.20;5.93;;;;;;;11.05;100.00;102533.81;5084146;28;20028;-66
2022/09/21 08:23:21;;;;;;;18.70;6.22;;;;;;;11.22;100.00;102539.63;5087845;28;20047;-68
2022/09/21 08:25:47;;;;;;;20.67;6.63;;;;;;;11.42;100.00;102534.88;5090226;28;20470;-68
2022/09/21 08:28:13;;;;;;;18.77;6.05;;;;;;;11.48;100.00;102532.41;5087314;28;20035;-67
2022/09/21 08:30:39;;;;;;;16.20;4.93;;;;;;;11.62;100.00;102534.53;5086981;28;20017;-67
2022/09/21 08:33:05;;;;;;;17.90;4.65;;;;;;;11.69;100.00;102536.47;5091507;28;20021;-66
2022/09/21 08:35:31;;;;;;;16.08;4.50;;;;;;;11.72;100.00;102536.56;5086250;28;20079;-66
2022/09/21 08:37:56;;;;;;;17.77;3.70;;;;;;;11.81;100.00;102543.84;5089959;28;20032;-66
2022/09/21 08:40:22;;;;;;;13.27;3.60;;;;;;;11.88;100.00;102532.56;5088453;28;20522;-66
2022/09/21 08:43:02;;;;;;;13.80;3.50;;;;;;;12.23;100.00;102539.66;5087592;28;20110;-67
2022/09/21 08:45:40;;;;;;;18.10;3.92;;;;;;;13.14;100.00;102539.03;5086974;28;20062;-67
2022/09/21 08:48:17;;;;;;;14.27;3.47;;;;;;;13.65;100.00;102542.72;5084540;28;20495;-66
2022/09/21 08:50:48;;;;;;;14.45;3.67;;;;;;;13.95;100.00;102540.59;5083972;28;20086;-65
2022/09/21 08:53:18;;;;;;;13.95;3.38;;;;;;;13.94;100.00;102541.47;5086260;28;20474;-66
2022/09/21 08:55:44;;;;;;;13.55;3.08;;;;;;;13.84;100.00;102534.19;5086285;28;20456;-67
2022/09/21 08:58:18;;;;;;;16.70;3.33;;;;;;;13.84;100.00;102539.53;5088604;28;20050;-66
2022/09/21 09:00:44;;;;;;;13.50;2.80;;;;;;;14.37;100.00;102548.38;5083769;28;20444;-67
2022/09/21 09:03:36;;;;;;;13.98;3.10;;;;;;;15.30;100.00;102542.56;5089920;28;20020;-66
2022/09/21 09:06:21;;;;;;;12.55;2.90;;;;;;;16.41;100.00;102542.72;5087582;28;20032;-66
2022/09/21 09:09:03;;;;;;;11.70;2.80;;;;;;;17.27;100.00;102540.53;5089971;28;20439;-67
2022/09/21 09:12:07;;;;;;;14.10;2.97;;;;;;;17.90;100.00;102553.19;5087314;28;20028;-67
2022/09/21 09:14:36;;;;;;;12.48;3.00;;;;;;;18.36;100.00;102554.94;5080818;28;20024;-67
2022/09/21 09:17:24;;;;;;;12.43;2.80;;;;;;;19.13;100.00;102558.34;5085807;28;20032;-68
2022/09/21 09:20:00;;;;;;;12.05;2.50;;;;;;;19.66;100.00;102556.28;5081978;28;20078;-66
2022/09/21 09:22:39;;;;;;;10.88;2.30;;;;;;;19.71;99.79;102550.88;5082645;28;20479;-67
2022/09/21 09:25:14;;;;;;;11.18;2.35;;;;;;;20.15;93.15;102557.72;5082704;28;20024;-67
2022/09/21 09:27:43;;;;;;;12.68;2.90;;;;;;;20.44;80.65;102561.91;5086800;28;20413;-70
2022/09/21 09:30:17;;;;;;;13.07;2.60;;;;;;;19.40;84.80;102563.59;5086706;28;20089;-68
2022/09/21 09:33:17;;;;;;;9.07;2.40;;;;;;;19.39;90.79;102557.31;5084040;28;20421;-68
2022/09/21 09:36:06;;;;;;;9.77;2.45;;;;;;;20.51;86.85;102562.75;5084996;28;20147;-68
2022/09/21 09:38:55;;;;;;;11.57;2.50;;;;;;;21.20;68.98;102556.63;5084659;28;20031;-67
2022/09/21 09:41:52;;;;;;;10.15;2.40;;;;;;;22.21;61.11;102561.38;5083354;28;20115;-67
2022/09/21 09:44:25;;;;;;;14.15;2.20;;;;;;;22.93;55.71;102561.84;5085763;28;20028;-69
2022/09/21 09:47:28;;;;;;;12.20;2.53;;;;;;;23.92;59.13;102554.28;5085765;28;20028;-69
2022/09/21 09:49:59;;;;;;;13.38;2.33;;;;;;;24.62;45.10;102560.63;5084331;28;20118;-64
2022/09/21 09:52:25;;;;;;;11.20;2.20;;;;;;;25.00;40.26;102561.34;5086532;28;20509;-62
2022/09/21 09:54:51;;;;;;;11.98;2.33;;;;;;;24.85;40.53;102558.16;5089661;28;20021;-62
2022/09/21 09:57:26;;;;;;;9.88;2.38;;;;;;;25.49;38.44;102562.56;5085962;28;20127;-62
2022/09/21 09:59:54;;;;;;;9.68;2.20;;;;;;;26.25;36.12;102565.53;5088399;28;20024;-62
2022/09/21 10:02:21;;;;;;;9.68;2.30;;;;;;;27.09;34.76;102563.44;5083467;28;20043;-62
2022/09/21 10:05:05;;;;;;;11.52;2.33;;;;;;;26.63;37.19;102560.56;5088223;28;20032;-64
2022/09/21 10:07:56;;;;;;;8.55;1.90;;;;;;;24.36;38.93;102551.38;5085701;28;20106;-63
2022/09/21 10:10:34;;;;;;;7.75;1.75;;;;;;;22.20;40.17;102559.59;5081528;28;20028;-63
2022/09/21 10:13:08;;;;;;;9.65;2.00;;;;;;;20.96;42.35;102555.13;5087643;28;20024;-64
2022/09/21 10:15:41;;;;;;;10.57;1.83;;;;;;;20.16;43.53;102554.13;5083315;28;20046;-64
2022/09/21 10:18:15;;;;;;;9.75;1.90;;;;;;;19.48;47.36;102551.94;5084552;28;20493;-64
2022/09/21 10:20:53;;;;;;;9.90;2.00;;;;;;;19.17;48.84;102548.50;5081733;28;20029;-63
2022/09/21 10:23:18;;;;;;;7.97;2.00;;;;;;;18.85;48.07;102540.56;5082555;28;20024;-63
2022/09/21 10:25:44;;;;;;;13.07;2.80;;;;;;;18.62;50.47;102544.19;5085386;28;20027;-63
2022/09/21 10:28:12;;;;;;;11.63;2.60;;;;;;;18.27;53.14;102548.69;5081520;28;20368;-62
2022/09/21 10:30:38;;;;;;;14.35;2.80;;;;;;;18.22;54.47;102541.59;5082018;28;20103;-65
2022/09/21 10:33:18;;;;;;;13.07;2.70;;;;;;;18.32;55.22;102546.03;5084543;28;20449;-64
2022/09/21 10:35:51;;;;;;;14.18;2.75;;;;;;;18.27;56.61;102540.66;5081195;28;20123;-64
2022/09/21 10:38:26;;;;;;;12.52;2.85;;;;;;;18.15;55.89;102534.47;5084158;28;20106;-64
2022/09/21 10:40:52;;;;;;;12.98;2.63;;;;;;;18.24;55.65;102537.13;5082367;28;20115;-64
2022/09/21 10:43:35;;;;;;;13.02;2.60;;;;;;;18.22;55.10;102531.75;5084391;28;20024;-64
2022/09/21 10:46:01;;;;;;;7.63;2.45;;;;;;;18.04;53.47;102529.09;5084200;28;20021;-62
2022/09/21 10:48:27;;;;;;;11.52;2.70;;;;;;;17.87;52.90;102524.59;5083082;28;20323;-64
2022/09/21 10:50:54;;;;;;;11.45;2.50;;;;;;;17.68;55.38;102522.78;5082640;28;20025;-64
2022/09/21 10:53:27;;;;;;;14.20;2.50;;;;;;;17.56;54.79;102516.56;5084003;28;20032;-63
2022/09/21 10:55:59;;;;;;;10.40;2.40;;;;;;;17.64;56.49;102527.25;5082562;28;20028;-64
2022/09/21 10:58:24;;;;;;;11.03;2.57;;;;;;;17.60;55.42;102522.78;5082879;28;20097;-63
2022/09/21 11:00:51;;;;;;;12.95;2.58;;;;;;;17.56;55.55;102513.88;5082112;28;20462;-65
2022/09/21 11:03:28;;;;;;;14.52;2.67;;;;;;;17.45;54.84;102525.44;5083969;28;20112;-64
2022/09/21 11:05:57;;;;;;;11.30;2.45;;;;;;;17.29;53.99;102520.06;5082396;28;20479;-64
2022/09/21 11:08:32;;;;;;;11.43;2.40;;;;;;;17.33;54.79;102515.59;5083187;28;20055;-64
2022/09/21 11:11:36;;;;;;;12.43;2.30;;;;;;;17.41;55.93;102517.41;5083026;28;20016;-63
2022/09/21 11:14:19;;;;;;;10.73;2.30;;;;;;;17.83;55.17;102525.50;5018925;28;20045;-64
2022/09/21 11:17:03;;;;;;;11.07;2.50;;;;;;;18.20;55.37;102536.25;5019061;28;20025;-64
2022/09/21 11:19:43;;;;;;;11.75;2.45;;;;;;;18.45;55.39;102528.19;5020208;28;20049;-64
2022/09/21 11:22:30;;;;;;;11.10;2.40;;;;;;;18.61;54.13;102531.69;5022189;28;20037;-64
2022/09/21 11:25:08;;;;;;;9.80;2.20;;;;;;;18.42;51.66;102534.44;5022113;28;20073;-64
2022/09/21 11:27:38;;;;;;;9.25;2.28;;;;;;;18.34;53.66;102530.84;5019311;28;20420;-64
2022/09/21 11:30:11;;;;;;;12.07;2.47;;;;;;;18.39;53.33;102523.72;5023259;28;20124;-64
2022/09/21 11:33:02;;;;;;;13.70;2.50;;;;;;;18.29;54.43;102525.50;5022969;28;20041;-64
2022/09/21 11:36:01;;;;;;;9.05;2.20;;;;;;;20.63;49.61;102519.63;5025625;28;20061;-62
2022/09/21 11:39:00;;;;;;;13.30;2.40;;;;;;;24.88;41.71;102520.19;5025662;28;20051;-64
2022/09/21 11:41:47;;;;;;;9.90;2.20;;;;;;;28.10;37.09;102525.84;5026159;28;20033;-64